createdAt,value
2023-05-18T00:00:19.844Z,2.33
2023-05-18T00:03:04.583Z,2.58
2023-05-18T00:05:49.964Z,3.10
2023-05-18T00:08:36.720Z,2.60
2023-05-18T00:11:21.844Z,3.47
2023-05-18T00:14:08.182Z,3.70
2023-05-18T00:16:53.860Z,2.90
2023-05-18T00:19:40.560Z,2.72
2023-05-18T00:22:26.351Z,3.08
2023-05-18T00:25:11.421Z,2.50
2023-05-18T00:27:56.287Z,2.92
2023-05-18T00:30:41.706Z,2.85
2023-05-18T00:33:26.424Z,3.05
2023-05-18T00:36:12.486Z,3.45
2023-05-18T00:38:58.444Z,2.75
2023-05-18T00:41:43.518Z,3.40
2023-05-18T00:44:28.248Z,3.17
2023-05-18T00:47:13.142Z,3.10
2023-05-18T00:49:58.480Z,3.47
2023-05-18T00:52:44.005Z,3.28
2023-05-18T00:55:29.824Z,3.00
2023-05-18T00:58:14.856Z,3.00
2023-05-18T01:01:03.591Z,3.13
2023-05-18T01:03:48.732Z,3.08
2023-05-18T01:06:37.508Z,3.05
2023-05-18T01:09:23.890Z,2.65
2023-05-18T01:12:29.422Z,2.97
2023-05-18T01:15:22.177Z,3.60
2023-05-18T01:18:28.881Z,3.10
2023-05-18T01:21:46.580Z,2.78
2023-05-18T01:24:42.597Z,2.85
2023-05-18T01:27:28.066Z,2.45
2023-05-18T01:30:16.998Z,2.72
2023-05-18T01:33:08.270Z,3.03
2023-05-18T01:35:53.764Z,3.47
2023-05-18T01:38:42.362Z,2.95
2023-05-18T01:41:30.198Z,2.78
2023-05-18T01:44:22.810Z,2.63
2023-05-18T01:47:16.479Z,2.38
2023-05-18T01:50:10.504Z,2.42
2023-05-18T01:53:08.860Z,2.92
2023-05-18T01:55:57.665Z,2.70
2023-05-18T01:58:44.303Z,2.70
2023-05-18T02:01:29.481Z,2.00
2023-05-18T02:04:14.738Z,2.63
2023-05-18T02:06:59.521Z,2.45
2023-05-18T02:09:44.818Z,2.22
2023-05-18T02:12:29.819Z,2.20
2023-05-18T02:15:14.714Z,2.22
2023-05-18T02:18:00.279Z,2.30
2023-05-18T02:20:49.048Z,2.13
2023-05-18T02:23:35.295Z,3.00
2023-05-18T02:26:21.048Z,3.15
2023-05-18T02:29:06.816Z,2.20
2023-05-18T02:31:51.684Z,2.38
2023-05-18T02:34:39.364Z,2.88
2023-05-18T02:37:24.428Z,2.30
2023-05-18T02:40:14.189Z,2.50
2023-05-18T02:42:59.066Z,2.30
2023-05-18T02:45:44.232Z,2.50
2023-05-18T02:48:29.518Z,2.20
2023-05-18T02:51:14.509Z,2.28
2023-05-18T02:54:00.255Z,2.30
2023-05-18T02:56:45.017Z,2.10
2023-05-18T02:59:29.858Z,1.88
2023-05-18T03:02:15.005Z,2.65
2023-05-18T03:05:00.187Z,2.30
2023-05-18T03:07:50.690Z,2.13
2023-05-18T03:10:37.462Z,2.70
2023-05-18T03:13:22.451Z,2.05
2023-05-18T03:16:07.796Z,2.22
2023-05-18T03:18:53.032Z,2.13
2023-05-18T03:21:38.679Z,2.05
2023-05-18T03:24:26.094Z,2.10
2023-05-18T03:27:12.964Z,1.90
2023-05-18T03:29:58.217Z,2.28
2023-05-18T03:32:43.429Z,1.80
2023-05-18T03:35:29.017Z,2.10
2023-05-18T03:38:14.568Z,2.20
2023-05-18T03:40:59.592Z,1.77
2023-05-18T03:43:44.771Z,2.40
2023-05-18T03:46:29.515Z,2.40
2023-05-18T03:49:14.434Z,2.22
2023-05-18T03:51:59.652Z,2.47
2023-05-18T03:54:44.446Z,2.00
2023-05-18T03:57:29.884Z,2.20
2023-05-18T04:00:15.796Z,2.00
2023-05-18T04:03:03.245Z,2.38
2023-05-18T04:05:49.630Z,2.20
2023-05-18T04:08:34.462Z,2.17
2023-05-18T04:11:19.149Z,2.55
2023-05-18T04:14:03.807Z,2.47
2023-05-18T04:16:48.881Z,1.73
2023-05-18T04:19:35.001Z,2.35
2023-05-18T04:22:22.319Z,2.45
2023-05-18T04:25:08.678Z,2.10
2023-05-18T04:27:55.084Z,2.10
2023-05-18T04:30:39.831Z,2.13
2023-05-18T04:33:25.536Z,2.30
2023-05-18T04:36:10.417Z,2.20
2023-05-18T04:38:58.791Z,1.88
2023-05-18T04:41:43.839Z,2.38
2023-05-18T04:44:29.897Z,2.58
2023-05-18T04:47:14.756Z,2.13
2023-05-18T04:49:59.641Z,2.00
2023-05-18T04:52:48.877Z,2.25
2023-05-18T04:55:35.088Z,2.72
2023-05-18T04:58:20.879Z,2.38
2023-05-18T05:01:06.839Z,2.28
2023-05-18T05:03:52.294Z,2.40
2023-05-18T05:06:37.278Z,2.60
2023-05-18T05:09:22.676Z,2.25
2023-05-18T05:12:07.713Z,2.25
2023-05-18T05:14:53.186Z,2.33
2023-05-18T05:17:38.028Z,2.45
2023-05-18T05:20:23.210Z,2.70
2023-05-18T05:23:08.172Z,2.67
2023-05-18T05:25:53.406Z,2.50
2023-05-18T05:28:38.813Z,3.03
2023-05-18T05:31:23.828Z,3.22
2023-05-18T05:34:11.356Z,2.80
2023-05-18T05:39:41.811Z,3.80
2023-05-18T05:42:27.206Z,3.22
2023-05-18T05:45:12.280Z,2.80
2023-05-18T05:47:57.278Z,2.83
2023-05-18T05:50:42.505Z,2.80
2023-05-18T05:53:29.586Z,2.90
2023-05-18T05:56:15.013Z,3.53
2023-05-18T05:59:01.117Z,3.10
2023-05-18T06:01:45.916Z,2.88
2023-05-18T06:04:31.025Z,2.45
2023-05-18T06:07:17.491Z,2.92
2023-05-18T06:10:02.949Z,3.20
2023-05-18T06:12:47.668Z,3.03
2023-05-18T06:15:33.192Z,2.97
2023-05-18T06:18:18.685Z,2.83
2023-05-18T06:21:03.763Z,3.13
2023-05-18T06:23:48.907Z,3.05
2023-05-18T06:26:34.170Z,2.78
2023-05-18T06:29:19.479Z,2.65
2023-05-18T06:32:04.950Z,2.45
2023-05-18T06:34:51.181Z,2.58
2023-05-18T06:37:36.407Z,2.67
2023-05-18T06:40:24.017Z,2.90
2023-05-18T06:43:09.102Z,2.20
2023-05-18T06:45:55.300Z,2.47
2023-05-18T06:48:39.996Z,2.67
2023-05-18T06:51:25.032Z,2.60
2023-05-18T06:54:09.944Z,2.22
2023-05-18T06:56:54.880Z,2.15
2023-05-18T06:59:39.791Z,2.70
2023-05-18T07:02:25.180Z,2.15
2023-05-18T07:05:10.334Z,2.30
2023-05-18T07:07:55.994Z,2.33
2023-05-18T07:10:41.108Z,2.30
2023-05-18T07:13:26.688Z,2.30
2023-05-18T07:16:11.860Z,1.90
2023-05-18T07:18:59.723Z,2.30
2023-05-18T07:21:44.943Z,2.33
2023-05-18T07:24:30.445Z,2.55
2023-05-18T07:27:15.912Z,2.08
2023-05-18T07:30:01.071Z,2.00
2023-05-18T07:32:46.466Z,2.40
2023-05-18T07:35:31.634Z,2.25
2023-05-18T07:38:16.918Z,2.30
2023-05-18T07:41:02.050Z,1.92
2023-05-18T07:43:47.325Z,1.70
2023-05-18T07:46:32.196Z,2.05
2023-05-18T07:49:17.622Z,1.92
2023-05-18T07:52:02.726Z,2.50
2023-05-18T07:54:47.633Z,1.85
2023-05-18T07:57:34.708Z,1.80
2023-05-18T08:00:20.353Z,1.70
2023-05-18T08:03:06.727Z,1.95
2023-05-18T08:05:51.907Z,2.47
2023-05-18T08:08:38.423Z,1.90
2023-05-18T08:11:23.880Z,2.63
2023-05-18T08:14:08.758Z,2.13
2023-05-18T08:16:53.746Z,2.00
2023-05-18T08:19:39.821Z,2.20
2023-05-18T08:22:26.890Z,2.00
2023-05-18T08:25:11.906Z,1.77
2023-05-18T08:27:57.057Z,2.10
2023-05-18T08:30:42.295Z,2.22
2023-05-18T08:33:27.596Z,2.03
2023-05-18T08:36:13.305Z,2.47
2023-05-18T08:38:58.501Z,2.85
2023-05-18T08:42:00.202Z,2.03
2023-05-18T08:44:45.316Z,1.92
2023-05-18T08:47:32.204Z,1.90
2023-05-18T08:50:24.174Z,2.10
2023-05-18T08:53:11.575Z,2.10
2023-05-18T08:55:58.092Z,2.22
2023-05-18T08:58:47.519Z,2.03
2023-05-18T09:01:32.867Z,2.00
2023-05-18T09:04:19.037Z,2.00
2023-05-18T09:07:05.365Z,2.53
2023-05-18T09:09:50.386Z,2.30
2023-05-18T09:12:36.614Z,1.90
2023-05-18T09:15:22.190Z,2.20
2023-05-18T09:18:07.265Z,2.30
2023-05-18T09:20:52.692Z,2.28
2023-05-18T09:23:41.444Z,2.67
2023-05-18T09:26:27.856Z,2.90
2023-05-18T09:29:20.797Z,1.80
2023-05-18T09:32:10.630Z,1.77
2023-05-18T09:35:03.338Z,2.00
2023-05-18T09:37:48.462Z,1.88
2023-05-18T09:40:33.389Z,3.22
2023-05-18T09:43:21.302Z,2.03
2023-05-18T09:46:08.182Z,2.20
2023-05-18T09:48:55.858Z,2.30
2023-05-18T09:51:40.778Z,2.85
2023-05-18T09:54:26.321Z,2.47
2023-05-18T09:57:11.787Z,2.72
2023-05-18T10:00:07.557Z,2.30
2023-05-18T10:02:53.326Z,2.38
2023-05-18T10:05:42.402Z,2.00
2023-05-18T10:08:27.743Z,1.75
2023-05-18T10:11:12.649Z,2.10
2023-05-18T10:13:58.425Z,2.38
2023-05-18T10:16:44.832Z,2.05
2023-05-18T10:19:34.230Z,1.80
2023-05-18T10:22:23.171Z,2.42
2023-05-18T10:25:11.665Z,2.20
2023-05-18T10:28:01.757Z,1.98
2023-05-18T10:30:47.662Z,2.10
2023-05-18T10:33:33.644Z,1.90
2023-05-18T10:36:19.798Z,2.25
2023-05-18T10:39:06.359Z,2.10
2023-05-18T10:41:55.487Z,2.53
2023-05-18T10:44:40.670Z,2.38
2023-05-18T10:47:28.014Z,1.88
2023-05-18T10:50:15.032Z,1.63
2023-05-18T10:53:01.091Z,2.30
2023-05-18T10:55:48.116Z,2.15
2023-05-18T10:58:36.267Z,2.60
2023-05-18T11:01:21.875Z,1.98
2023-05-18T11:04:09.324Z,2.85
2023-05-18T11:07:02.095Z,2.53
2023-05-18T11:09:48.871Z,2.08
2023-05-18T11:12:38.071Z,2.10
2023-05-18T11:16:05.134Z,2.08
2023-05-18T11:18:52.638Z,2.10
2023-05-18T11:21:41.808Z,2.63
2023-05-18T11:24:31.159Z,2.13
2023-05-18T11:27:16.278Z,2.38
2023-05-18T11:30:14.736Z,2.20
2023-05-18T11:33:10.503Z,2.10
2023-05-18T11:36:14.660Z,2.47
2023-05-18T11:39:04.913Z,2.20
2023-05-18T11:41:59.932Z,2.28
2023-05-18T11:44:52.247Z,2.50
2023-05-18T11:47:38.085Z,2.50
2023-05-18T11:50:24.283Z,2.30
2023-05-18T11:53:18.064Z,1.95
2023-05-18T11:56:03.691Z,2.10
2023-05-18T11:59:15.316Z,2.17
2023-05-18T12:02:02.627Z,2.17
2023-05-18T12:04:52.035Z,2.05
2023-05-18T12:07:39.094Z,2.30
2023-05-18T12:10:25.619Z,3.22
2023-05-18T12:13:16.567Z,1.70
2023-05-18T12:16:02.897Z,2.08
2023-05-18T12:18:52.109Z,2.35
2023-05-18T12:21:37.465Z,2.10
2023-05-18T12:24:22.277Z,2.13
2023-05-18T12:27:08.655Z,2.45
2023-05-18T12:29:54.193Z,2.03
2023-05-18T12:32:44.775Z,4.30
2023-05-18T12:35:30.670Z,2.08
2023-05-18T12:38:18.680Z,2.00
2023-05-18T12:41:03.506Z,2.15
2023-05-18T12:43:51.103Z,2.55
2023-05-18T12:46:36.423Z,2.08
2023-05-18T12:49:21.223Z,2.00
2023-05-18T12:52:14.693Z,2.35
2023-05-18T12:55:02.771Z,2.35
2023-05-18T12:58:04.077Z,2.20
2023-05-18T13:00:50.076Z,2.25
2023-05-18T13:03:35.597Z,2.20
2023-05-18T13:06:20.950Z,2.33
2023-05-18T13:09:13.762Z,2.50
2023-05-18T13:12:07.295Z,2.15
2023-05-18T13:14:53.525Z,1.90
2023-05-18T13:17:38.747Z,2.22
2023-05-18T13:20:29.441Z,2.20
2023-05-18T13:23:16.053Z,2.38
2023-05-18T13:26:00.829Z,2.13
2023-05-18T13:28:46.919Z,2.38
2023-05-18T13:31:32.106Z,1.90
2023-05-18T13:34:17.244Z,2.60
2023-05-18T13:37:03.526Z,2.25
2023-05-18T13:39:48.597Z,2.75
2023-05-18T13:42:33.764Z,2.60
2023-05-18T13:45:19.517Z,2.55
2023-05-18T13:48:10.187Z,2.60
2023-05-18T13:50:57.474Z,2.40
2023-05-18T13:53:43.024Z,3.00
2023-05-18T13:56:28.636Z,2.67
2023-05-18T13:59:15.281Z,2.95
2023-05-18T14:02:01.433Z,2.88
2023-05-18T14:04:47.874Z,2.72
2023-05-18T14:07:32.538Z,2.55
2023-05-18T14:10:17.561Z,3.20
2023-05-18T14:13:02.709Z,2.67
2023-05-18T14:15:47.587Z,3.17
2023-05-18T14:18:32.426Z,2.83
2023-05-18T14:21:17.770Z,2.47
2023-05-18T14:24:05.787Z,2.60
2023-05-18T14:26:53.440Z,2.08
2023-05-18T14:29:42.168Z,2.42
2023-05-18T14:32:27.419Z,2.53
2023-05-18T14:35:13.011Z,2.60
2023-05-18T14:37:57.596Z,2.70
2023-05-18T14:40:42.781Z,2.50
2023-05-18T14:43:27.541Z,2.58
2023-05-18T14:46:12.247Z,2.95
2023-05-18T14:48:56.997Z,2.55
2023-05-18T14:51:42.013Z,2.53
2023-05-18T14:54:26.726Z,1.95
2023-05-18T14:57:12.033Z,2.90
2023-05-18T14:59:56.832Z,2.80
2023-05-18T15:02:42.571Z,2.80
2023-05-18T15:05:28.070Z,2.88
2023-05-18T15:08:12.904Z,2.50
2023-05-18T15:10:57.940Z,2.60
2023-05-18T15:13:44.106Z,2.75
2023-05-18T15:16:30.047Z,2.80
2023-05-18T15:19:15.011Z,2.42
2023-05-18T15:22:01.020Z,2.58
2023-05-18T15:24:46.282Z,2.65
2023-05-18T15:27:31.754Z,2.50
2023-05-18T15:30:16.844Z,2.65
2023-05-18T15:33:06.110Z,2.33
2023-05-18T15:35:51.502Z,2.15
2023-05-18T15:38:36.280Z,2.63
2023-05-18T15:41:22.370Z,2.38
2023-05-18T15:44:06.999Z,2.35
2023-05-18T15:46:52.235Z,2.22
2023-05-18T15:49:37.016Z,2.60
2023-05-18T15:52:22.068Z,2.40
2023-05-18T15:55:08.101Z,2.13
2023-05-18T15:57:53.234Z,2.28
2023-05-18T16:00:38.363Z,2.70
2023-05-18T16:03:23.893Z,2.40
2023-05-18T16:06:09.459Z,2.30
2023-05-18T16:08:56.196Z,2.53
2023-05-18T16:11:41.716Z,2.15
2023-05-18T16:14:26.900Z,2.47
2023-05-18T16:17:11.746Z,2.35
2023-05-18T16:19:56.661Z,2.30
2023-05-18T16:22:41.833Z,2.00
2023-05-18T16:25:26.871Z,2.40
2023-05-18T16:28:12.001Z,2.28
2023-05-18T16:30:57.155Z,2.20
2023-05-18T16:33:43.702Z,1.80
2023-05-18T16:36:28.431Z,2.10
2023-05-18T16:39:13.763Z,2.17
2023-05-18T16:41:59.282Z,2.50
2023-05-18T16:44:44.584Z,2.08
2023-05-18T16:47:33.011Z,2.13
2023-05-18T16:50:17.759Z,2.40
2023-05-18T16:53:02.873Z,2.22
2023-05-18T16:55:48.352Z,2.58
2023-05-18T16:58:34.449Z,2.13
2023-05-18T17:01:27.976Z,2.15
2023-05-18T17:04:14.156Z,2.20
2023-05-18T17:06:59.137Z,1.90
2023-05-18T17:09:44.616Z,1.95
2023-05-18T17:12:29.961Z,1.90
2023-05-18T17:15:16.186Z,2.17
2023-05-18T17:18:01.449Z,2.20
2023-05-18T17:20:46.617Z,1.83
2023-05-18T17:23:31.618Z,1.85
2023-05-18T17:26:18.363Z,1.90
2023-05-18T17:29:04.508Z,2.00
2023-05-18T17:31:49.823Z,1.73
2023-05-18T17:34:34.882Z,1.95
2023-05-18T17:37:20.971Z,2.00
2023-05-18T17:40:06.907Z,3.75
2023-05-18T17:42:51.971Z,2.10
2023-05-18T17:45:36.934Z,2.55
2023-05-18T17:48:21.838Z,1.90
2023-05-18T17:51:07.991Z,2.00
2023-05-18T17:53:56.856Z,2.00
2023-05-18T17:56:42.113Z,2.60
2023-05-18T17:59:31.477Z,1.67
2023-05-18T18:02:16.752Z,1.70
2023-05-18T18:05:02.785Z,1.85
2023-05-18T18:07:48.418Z,1.77
2023-05-18T18:10:35.377Z,2.20
2023-05-18T18:13:20.247Z,2.10
2023-05-18T18:16:05.796Z,2.10
2023-05-18T18:18:51.895Z,1.80
2023-05-18T18:21:36.990Z,2.42
2023-05-18T18:24:23.548Z,2.30
2023-05-18T18:27:08.702Z,2.10
2023-05-18T18:29:53.562Z,2.10
2023-05-18T18:32:39.740Z,1.90
2023-05-18T18:35:24.931Z,2.00
2023-05-18T18:38:09.742Z,2.03
2023-05-18T18:41:01.876Z,2.45
2023-05-18T18:43:46.678Z,1.58
2023-05-18T18:46:32.676Z,2.00
2023-05-18T18:49:17.551Z,2.10
2023-05-18T18:52:02.739Z,2.03
2023-05-18T18:54:47.905Z,1.63
2023-05-18T18:57:33.720Z,2.08
2023-05-18T19:00:22.710Z,1.90
2023-05-18T19:03:09.681Z,2.25
2023-05-18T19:05:54.799Z,2.42
2023-05-18T19:08:41.023Z,1.83
2023-05-18T19:11:26.874Z,2.35
2023-05-18T19:14:12.828Z,2.13
2023-05-18T19:16:58.172Z,2.30
2023-05-18T19:19:43.455Z,2.28
2023-05-18T19:22:30.297Z,2.10
2023-05-18T19:25:18.162Z,3.20
2023-05-18T19:28:03.097Z,2.05
2023-05-18T19:30:48.877Z,2.42
2023-05-18T19:33:34.476Z,2.33
2023-05-18T19:36:20.220Z,2.30
2023-05-18T19:39:06.769Z,2.22
2023-05-18T19:41:52.941Z,2.33
2023-05-18T19:44:38.289Z,2.83
2023-05-18T19:47:25.573Z,1.92
2023-05-18T19:52:57.777Z,2.20
2023-05-18T19:55:43.544Z,2.97
2023-05-18T19:58:28.675Z,2.40
2023-05-18T20:01:15.785Z,2.08
2023-05-18T20:04:01.176Z,2.33
2023-05-18T20:06:46.793Z,3.72
2023-05-18T20:09:32.174Z,4.13
2023-05-18T20:12:19.828Z,3.13
2023-05-18T20:15:05.631Z,2.78
2023-05-18T20:17:50.863Z,2.70
2023-05-18T20:20:39.052Z,2.70
2023-05-18T20:23:26.355Z,2.92
2023-05-18T20:26:11.443Z,2.67
2023-05-18T20:28:56.551Z,3.03
2023-05-18T20:31:41.565Z,2.92
2023-05-18T20:34:27.036Z,3.33
2023-05-18T20:37:14.027Z,2.60
2023-05-18T20:40:00.906Z,3.05
2023-05-18T20:42:47.913Z,4.43
2023-05-18T20:45:32.993Z,4.25
2023-05-18T20:48:24.585Z,4.13
2023-05-18T20:51:15.144Z,3.78
2023-05-18T20:54:00.145Z,3.25
2023-05-18T20:56:45.171Z,3.85
2023-05-18T20:59:31.197Z,3.60
2023-05-18T21:02:17.354Z,3.75
2023-05-18T21:05:04.669Z,3.28
2023-05-18T21:07:50.762Z,3.30
2023-05-18T21:10:36.114Z,2.92
2023-05-18T21:13:23.371Z,3.58
2023-05-18T21:16:09.433Z,3.25
2023-05-18T21:18:55.463Z,3.83
2023-05-18T21:21:40.338Z,3.63
2023-05-18T21:24:25.694Z,3.78
2023-05-18T21:27:10.869Z,2.70
2023-05-18T21:29:56.009Z,3.10
2023-05-18T21:32:42.568Z,3.10
2023-05-18T21:35:27.641Z,3.25
2023-05-18T21:38:13.122Z,3.60
2023-05-18T21:40:58.677Z,2.95
2023-05-18T21:43:43.814Z,3.13
2023-05-18T21:46:29.025Z,2.97
2023-05-18T21:49:13.939Z,3.30
2023-05-18T21:51:58.960Z,2.78
2023-05-18T21:54:43.972Z,2.75
2023-05-18T21:57:29.201Z,2.42
2023-05-18T22:00:16.580Z,2.95
2023-05-18T22:03:01.801Z,2.58
2023-05-18T22:05:47.169Z,2.53
2023-05-18T22:08:31.920Z,2.75
2023-05-18T22:11:16.845Z,3.00
2023-05-18T22:14:01.790Z,2.80
2023-05-18T22:16:47.099Z,3.42
2023-05-18T22:19:32.644Z,2.72
2023-05-18T22:22:29.324Z,2.67
2023-05-18T22:25:17.895Z,2.70
2023-05-18T22:28:03.338Z,2.75
2023-05-18T22:30:52.471Z,2.80
2023-05-18T22:33:37.193Z,2.78
2023-05-18T22:36:22.455Z,2.38
2023-05-18T22:39:08.723Z,2.25
2023-05-18T22:41:53.921Z,2.50
2023-05-18T22:44:38.992Z,2.30
2023-05-18T22:47:24.986Z,2.75
2023-05-18T22:50:10.166Z,2.50
2023-05-18T22:52:55.797Z,2.47
2023-05-18T22:55:41.057Z,2.67
2023-05-18T22:58:25.950Z,2.55
2023-05-18T23:01:11.105Z,2.92
2023-05-18T23:03:56.675Z,2.55
2023-05-18T23:06:42.074Z,2.70
2023-05-18T23:09:27.196Z,3.05
2023-05-18T23:12:12.394Z,2.53
2023-05-18T23:14:58.609Z,2.90
2023-05-18T23:17:43.542Z,2.42
2023-05-18T23:20:28.951Z,2.53
2023-05-18T23:23:13.926Z,2.58
2023-05-18T23:25:59.478Z,2.58
2023-05-18T23:28:44.460Z,2.78
2023-05-18T23:31:30.569Z,2.75
2023-05-18T23:34:15.873Z,2.60
2023-05-18T23:37:11.365Z,2.72
2023-05-18T23:39:57.166Z,2.78
2023-05-18T23:42:42.696Z,2.50
2023-05-18T23:45:28.223Z,2.70
2023-05-18T23:48:13.532Z,2.42
2023-05-18T23:51:01.369Z,2.80
2023-05-18T23:53:48.400Z,2.75
2023-05-18T23:56:34.060Z,2.58
2023-05-18T23:59:19.777Z,2.72
